createdAt,value
2017-07-16T00:01:08.789Z,83.11
2017-07-16T00:01:49.211Z,83.34
2017-07-16T00:02:29.715Z,83.11
2017-07-16T00:03:10.170Z,83.11
2017-07-16T00:03:50.639Z,83.2
2017-07-16T00:06:08.510Z,83.3
2017-07-16T00:06:48.933Z,83.11
2017-07-16T00:07:29.488Z,83.05
2017-07-16T00:08:09.926Z,83.11
2017-07-16T00:08:50.404Z,82.86
2017-07-16T00:09:30.820Z,83.05
2017-07-16T00:10:11.271Z,82.67
2017-07-16T00:10:51.724Z,83.25
2017-07-16T00:11:32.160Z,83.25
2017-07-16T00:12:12.620Z,83.05
2017-07-16T00:12:53.052Z,83.63
2017-07-16T00:13:33.504Z,83.05
2017-07-16T00:15:46.238Z,83.68
2017-07-16T00:16:26.661Z,84.26
2017-07-16T00:17:07.135Z,84.16
2017-07-16T00:17:47.616Z,84.26
2017-07-16T00:18:28.080Z,83.78
2017-07-16T00:19:08.589Z,83.68
2017-07-16T00:19:49.069Z,83.97
2017-07-16T00:20:29.519Z,83.59
2017-07-16T00:21:09.992Z,83.49
2017-07-16T00:21:50.482Z,83.59
2017-07-16T00:22:30.961Z,83.59
2017-07-16T00:23:11.440Z,83.78
2017-07-16T00:23:51.913Z,84.16
2017-07-16T00:24:32.365Z,84.55
2017-07-16T00:25:12.857Z,84.45
2017-07-16T00:25:53.347Z,84.55
2017-07-16T00:26:33.811Z,84.83
2017-07-16T00:27:14.268Z,84.55
2017-07-16T00:27:54.780Z,84.35
2017-07-16T00:28:35.283Z,84.06
2017-07-16T00:29:15.742Z,83.78
2017-07-16T00:29:56.206Z,84.06
2017-07-16T00:30:36.767Z,83.68
2017-07-16T00:31:17.189Z,83.78
2017-07-16T00:31:57.659Z,83.39
2017-07-16T00:32:38.149Z,83.39
2017-07-16T00:33:18.651Z,83.97
2017-07-16T00:33:59.117Z,83.39
2017-07-16T00:34:39.623Z,83.49
2017-07-16T00:35:20.048Z,83.3
2017-07-16T00:36:00.556Z,83.01
2017-07-16T00:36:40.951Z,83.11
2017-07-16T00:37:21.413Z,83.01
2017-07-16T00:38:01.904Z,83.2
2017-07-16T00:38:42.342Z,83.39
2017-07-16T00:39:22.770Z,83.3
2017-07-16T00:40:03.258Z,82.82
2017-07-16T00:40:43.737Z,82.82
2017-07-16T00:41:24.188Z,83.01
2017-07-16T00:42:04.616Z,82.73
2017-07-16T00:42:45.068Z,83.3
2017-07-16T00:43:25.492Z,83.78
2017-07-16T00:44:05.953Z,83.97
2017-07-16T00:44:46.415Z,83.78
2017-07-16T00:46:44.006Z,84.16
2017-07-16T00:47:24.478Z,83.59
2017-07-16T00:48:04.987Z,83.68
2017-07-16T00:48:45.479Z,83.39
2017-07-16T00:49:25.981Z,83.3
2017-07-16T00:50:06.432Z,83.15
2017-07-16T00:50:46.923Z,83.15
2017-07-16T00:51:27.397Z,82.92
2017-07-16T00:52:07.850Z,82.67
2017-07-16T00:52:48.331Z,82.86
2017-07-16T00:53:28.876Z,82.67
2017-07-16T00:54:09.322Z,82.19
2017-07-16T00:54:49.812Z,82.29
2017-07-16T00:55:30.286Z,82
2017-07-16T00:56:10.806Z,82
2017-07-16T00:56:51.221Z,82
2017-07-16T00:57:31.682Z,82
2017-07-16T00:58:12.140Z,82.38
2017-07-16T00:58:52.585Z,82.48
2017-07-16T00:59:33.060Z,82.38
2017-07-16T01:00:13.569Z,82.19
2017-07-16T01:00:53.997Z,82.86
2017-07-16T01:01:34.477Z,82.96
2017-07-16T01:02:14.904Z,82.38
2017-07-16T01:04:02.416Z,82.86
2017-07-16T01:04:42.844Z,82.24
2017-07-16T01:05:23.304Z,82.38
2017-07-16T01:06:03.758Z,81.62
2017-07-16T01:06:44.205Z,81.62
2017-07-16T01:07:24.699Z,81.81
2017-07-16T01:08:05.165Z,81.9
2017-07-16T01:08:45.638Z,82.19
2017-07-16T01:09:26.105Z,82.09
2017-07-16T01:11:18.629Z,80.94
2017-07-16T01:11:59.091Z,79.99
2017-07-16T01:12:39.563Z,80.08
2017-07-16T01:13:20.055Z,80.94
2017-07-16T01:14:00.516Z,80.66
2017-07-16T01:14:40.977Z,80.85
2017-07-16T01:15:21.458Z,81.52
2017-07-16T01:16:01.907Z,81.71
2017-07-16T01:16:42.448Z,82
2017-07-16T01:17:22.941Z,82
2017-07-16T01:18:03.416Z,82.19
2017-07-16T01:18:43.897Z,81.23
2017-07-16T01:19:24.499Z,82.09
2017-07-16T01:20:04.955Z,82
2017-07-16T01:20:45.406Z,82.19
2017-07-16T01:21:25.920Z,82
2017-07-16T01:23:38.701Z,81.13
2017-07-16T01:24:19.161Z,80.85
2017-07-16T01:24:59.626Z,81.33
2017-07-16T01:25:40.075Z,81.43
2017-07-16T01:26:20.583Z,81.81
2017-07-16T01:27:01.057Z,82
2017-07-16T01:27:41.542Z,82.48
2017-07-16T01:28:22.057Z,82.53
2017-07-16T01:29:02.511Z,82.63
2017-07-16T01:29:42.979Z,83.01
2017-07-16T01:30:23.417Z,82.92
2017-07-16T01:31:03.925Z,83.3
2017-07-16T01:31:44.367Z,83.39
2017-07-16T01:32:24.834Z,83.97
2017-07-16T01:34:17.430Z,83.49
2017-07-16T01:34:57.864Z,83.3
2017-07-16T01:35:38.322Z,83.01
2017-07-16T01:36:18.747Z,83.01
2017-07-16T01:38:11.356Z,82.82
2017-07-16T01:38:51.748Z,82.43
2017-07-16T01:41:09.562Z,82.82
2017-07-16T01:41:50.032Z,82.73
2017-07-16T01:42:30.538Z,82.82
2017-07-16T01:43:11.014Z,82.82
2017-07-16T01:43:51.487Z,82.63
2017-07-16T01:44:31.956Z,82.63
2017-07-16T01:45:12.384Z,82.63
2017-07-16T01:45:52.831Z,82.29
2017-07-16T01:46:33.284Z,82.29
2017-07-16T01:47:13.748Z,82.29
2017-07-16T01:47:54.234Z,82
2017-07-16T01:48:34.697Z,82
2017-07-16T01:49:15.176Z,81.52
2017-07-16T01:49:55.624Z,81.81
2017-07-16T01:50:36.055Z,81.9
2017-07-16T01:51:16.504Z,81.81
2017-07-16T01:51:56.972Z,82.43
2017-07-16T01:52:37.380Z,82.82
2017-07-16T01:53:17.902Z,83.2
2017-07-16T01:53:58.351Z,83.49
2017-07-16T01:54:38.833Z,83.3
2017-07-16T01:55:19.330Z,83.01
2017-07-16T01:55:59.797Z,83.2
2017-07-16T01:56:40.247Z,83.59
2017-07-16T01:57:20.689Z,83.49
2017-07-16T01:58:01.178Z,83.39
2017-07-16T02:00:19.110Z,83.39
2017-07-16T02:00:59.473Z,83.97
2017-07-16T02:01:39.948Z,83.78
2017-07-16T02:02:20.374Z,83.59
2017-07-16T02:03:00.886Z,83.68
2017-07-16T02:03:41.353Z,84.06
2017-07-16T02:04:21.805Z,83.78
2017-07-16T02:05:02.280Z,84.45
2017-07-16T02:05:42.806Z,84.06
2017-07-16T02:06:23.282Z,84.26
2017-07-16T02:08:10.765Z,84.06
2017-07-16T02:08:51.241Z,84.06
2017-07-16T02:09:31.749Z,84.16
2017-07-16T02:10:12.221Z,83.78
2017-07-16T02:10:52.665Z,83.59
2017-07-16T02:11:33.129Z,83.78
2017-07-16T02:12:13.568Z,83.68
2017-07-16T02:12:53.990Z,83.3
2017-07-16T02:13:34.500Z,83.11
2017-07-16T02:14:14.902Z,82.73
2017-07-16T02:16:02.710Z,83.05
2017-07-16T02:16:43.244Z,82.67
2017-07-16T02:17:23.686Z,82.29
2017-07-16T02:18:04.154Z,82.86
2017-07-16T02:18:44.729Z,82.86
2017-07-16T02:19:25.201Z,82.76
2017-07-16T02:20:05.681Z,82.67
2017-07-16T02:20:46.119Z,82.76
2017-07-16T02:21:26.577Z,83.49
2017-07-16T02:22:07.069Z,82.67
2017-07-16T02:22:47.567Z,83.3
2017-07-16T02:23:27.999Z,83.11
2017-07-16T02:24:08.418Z,83.39
2017-07-16T02:24:48.850Z,83.2
2017-07-16T02:25:29.310Z,83.59
2017-07-16T02:27:47.099Z,83.3
2017-07-16T02:28:27.565Z,83.15
2017-07-16T02:29:08.029Z,83.25
2017-07-16T02:29:48.561Z,82.96
2017-07-16T02:30:29.004Z,82.67
2017-07-16T02:31:09.457Z,83.05
2017-07-16T02:31:49.874Z,82.19
2017-07-16T02:32:30.294Z,82
2017-07-16T02:33:10.755Z,82.48
2017-07-16T02:33:51.196Z,82.96
2017-07-16T02:34:31.640Z,82.86
2017-07-16T02:35:12.107Z,82.67
2017-07-16T02:35:52.556Z,82.63
2017-07-16T02:36:33.003Z,83.39
2017-07-16T02:37:13.986Z,83.39
2017-07-16T02:37:54.403Z,83.97
2017-07-16T02:39:41.916Z,83.97
2017-07-16T02:40:22.421Z,83.59
2017-07-16T02:41:03.585Z,83.59
2017-07-16T02:41:44.040Z,83.87
2017-07-16T02:42:24.541Z,83.92
2017-07-16T02:43:05.002Z,83.34
2017-07-16T02:43:45.439Z,83.15
2017-07-16T02:44:25.873Z,82.86
2017-07-16T02:45:07.204Z,83.34
2017-07-16T02:45:47.636Z,82.86
2017-07-16T02:46:28.064Z,82.76
2017-07-16T02:47:08.605Z,83.25
2017-07-16T02:47:49.025Z,82.43
2017-07-16T02:48:29.479Z,82.57
2017-07-16T02:50:47.324Z,82.76
2017-07-16T02:51:27.806Z,83.15
2017-07-16T02:52:08.302Z,82.76
2017-07-16T02:52:48.809Z,82.86
2017-07-16T02:53:29.273Z,82.76
2017-07-16T02:54:09.748Z,82.67
2017-07-16T02:54:50.237Z,82.67
2017-07-16T02:55:30.678Z,82.86
2017-07-16T02:56:11.188Z,82.67
2017-07-16T02:56:51.652Z,82.29
2017-07-16T02:59:04.855Z,82.19
2017-07-16T02:59:45.058Z,82
2017-07-16T03:00:25.508Z,81.9
2017-07-16T03:01:05.962Z,81.33
2017-07-16T03:01:46.416Z,81.62
2017-07-16T03:02:26.829Z,81.62
2017-07-16T03:04:14.403Z,81.81
2017-07-16T03:04:54.873Z,82.48
2017-07-16T03:05:35.283Z,82.86
2017-07-16T03:06:15.709Z,82.38
2017-07-16T03:06:56.150Z,82.19
2017-07-16T03:07:36.604Z,82.48
2017-07-16T03:08:17.057Z,82.19
2017-07-16T03:08:57.562Z,82.19
2017-07-16T03:09:37.999Z,81.81
2017-07-16T03:10:18.420Z,82.38
2017-07-16T03:10:58.881Z,82.29
2017-07-16T03:11:39.348Z,82.19
2017-07-16T03:12:19.804Z,81.71
2017-07-16T03:13:00.266Z,81.9
2017-07-16T03:13:40.688Z,81.81
2017-07-16T03:14:21.094Z,81.43
2017-07-16T03:15:01.535Z,81.52
2017-07-16T03:15:41.983Z,81.52
2017-07-16T03:16:22.455Z,81.62
2017-07-16T03:17:02.948Z,81.66
2017-07-16T03:17:43.366Z,81.56
2017-07-16T03:18:23.820Z,80.99
2017-07-16T03:20:36.560Z,80.89
2017-07-16T03:21:17.027Z,81.04
2017-07-16T03:21:57.486Z,81.18
2017-07-16T03:22:37.988Z,80.85
2017-07-16T03:23:18.451Z,81.08
2017-07-16T03:23:58.957Z,81.13
2017-07-16T03:24:39.415Z,81.81
2017-07-16T03:25:19.877Z,82.09
2017-07-16T03:26:00.418Z,82
2017-07-16T03:26:40.873Z,81.81
2017-07-16T03:27:21.356Z,82.19
2017-07-16T03:28:01.845Z,82.86
2017-07-16T03:28:42.340Z,82.96
2017-07-16T03:29:22.795Z,83.05
2017-07-16T03:30:03.264Z,82.76
2017-07-16T03:30:43.737Z,82.38
2017-07-16T03:31:24.234Z,83.44
2017-07-16T03:32:04.666Z,83.34
2017-07-16T03:32:45.152Z,83.92
2017-07-16T03:33:25.631Z,83.82
2017-07-16T03:34:06.093Z,84.2
2017-07-16T03:34:46.569Z,83.53
2017-07-16T03:35:27.048Z,83.34
2017-07-16T03:36:07.543Z,83.34
2017-07-16T03:36:48.042Z,83.44
2017-07-16T03:37:28.468Z,83.44
2017-07-16T03:38:08.962Z,83.44
2017-07-16T03:38:49.407Z,84.3
2017-07-16T03:39:29.861Z,84.68
2017-07-16T03:40:10.302Z,84.39
2017-07-16T03:40:50.780Z,84.88
2017-07-16T03:41:31.201Z,85.25
2017-07-16T03:42:11.705Z,84.68
2017-07-16T03:42:52.172Z,85.54
2017-07-16T03:43:32.619Z,85.93
2017-07-16T03:44:13.073Z,85.69
2017-07-16T03:44:53.562Z,85.21
2017-07-16T03:45:34.100Z,85.35
2017-07-16T03:46:14.568Z,85.54
2017-07-16T03:46:55.005Z,85.25
2017-07-16T03:47:35.472Z,85.35
2017-07-16T03:48:15.962Z,85.54
2017-07-16T03:48:56.425Z,85.25
2017-07-16T03:49:36.915Z,84.88
2017-07-16T03:50:17.388Z,85.06
2017-07-16T03:50:57.849Z,84.11
2017-07-16T03:53:15.638Z,82.86
2017-07-16T03:53:56.146Z,81.81
2017-07-16T03:54:36.608Z,81.23
2017-07-16T03:55:17.042Z,81.33
2017-07-16T03:55:57.496Z,81.62
2017-07-16T03:56:37.927Z,80.89
2017-07-16T03:57:18.392Z,80.12
2017-07-16T03:57:58.889Z,79.83
2017-07-16T03:58:39.348Z,79.16
2017-07-16T03:59:19.776Z,78.69
2017-07-16T04:01:37.586Z,77.82
2017-07-16T04:02:18.070Z,77.82
2017-07-16T04:02:58.566Z,78.02
2017-07-16T04:03:39.071Z,80.12
2017-07-16T04:04:19.561Z,79.55
2017-07-16T04:04:59.999Z,78.3
2017-07-16T04:05:40.481Z,77.92
2017-07-16T04:06:20.957Z,77.92
2017-07-16T04:07:01.452Z,77.63
2017-07-16T04:07:41.928Z,77.63
2017-07-16T04:08:22.431Z,77.73
2017-07-16T04:09:02.912Z,78.11
2017-07-16T04:09:43.427Z,78.2
2017-07-16T04:10:23.866Z,77.82
2017-07-16T04:11:04.354Z,78.59
2017-07-16T04:11:44.805Z,78.49
2017-07-16T04:12:25.259Z,78.78
2017-07-16T04:13:05.703Z,78.4
2017-07-16T04:13:46.154Z,78.59
2017-07-16T04:14:26.644Z,78.63
2017-07-16T04:15:07.122Z,78.88
2017-07-16T04:15:47.549Z,78.72
2017-07-16T04:16:28.006Z,77.73
2017-07-16T04:17:08.473Z,78.44
2017-07-16T04:17:48.925Z,78.59
2017-07-16T04:18:29.388Z,78.34
2017-07-16T04:19:09.855Z,78.63
2017-07-16T04:19:50.323Z,78.34
2017-07-16T04:20:30.763Z,77.58
2017-07-16T04:21:11.249Z,77.86
2017-07-16T04:21:51.700Z,77.86
2017-07-16T04:22:32.145Z,77.38
2017-07-16T04:23:12.591Z,77.38
2017-07-16T04:25:00.168Z,76.81
2017-07-16T04:25:40.538Z,76.9
2017-07-16T04:26:20.982Z,76.42
2017-07-16T04:28:33.760Z,75.46
2017-07-16T04:29:14.204Z,75.27
2017-07-16T04:29:54.683Z,75.65
2017-07-16T04:30:35.159Z,75.98
2017-07-16T04:31:15.641Z,75.95
2017-07-16T04:31:56.077Z,75.21
2017-07-16T04:32:36.507Z,74.83
2017-07-16T04:33:16.953Z,75.12
2017-07-16T04:33:57.451Z,75.02
2017-07-16T04:34:37.885Z,74.83
2017-07-16T04:35:18.328Z,74.93
2017-07-16T04:35:58.857Z,74.64
2017-07-16T04:36:39.446Z,74.44
2017-07-16T04:37:19.879Z,74.64
2017-07-16T04:38:00.302Z,75.12
2017-07-16T04:38:40.758Z,76.14
2017-07-16T04:39:21.204Z,75.85
2017-07-16T04:41:18.832Z,76.17
2017-07-16T04:41:59.311Z,76.65
2017-07-16T04:42:39.837Z,77.42
2017-07-16T04:43:20.308Z,77.8
2017-07-16T04:44:00.863Z,77.95
2017-07-16T04:44:41.279Z,78.44
2017-07-16T04:45:21.752Z,78.92
2017-07-16T04:46:02.240Z,78.72
2017-07-16T04:46:42.697Z,79.68
2017-07-16T04:47:23.168Z,79.59
2017-07-16T04:48:03.639Z,80.55
2017-07-16T04:48:44.132Z,80.16
2017-07-16T04:49:24.595Z,80.74
2017-07-16T04:50:05.085Z,80.35
2017-07-16T04:50:45.551Z,80.41
2017-07-16T04:51:26.021Z,80.51
2017-07-16T04:52:06.461Z,80.7
2017-07-16T04:53:58.989Z,80.51
2017-07-16T04:54:39.481Z,80.07
2017-07-16T04:55:19.953Z,79.97
2017-07-16T04:56:00.430Z,79.74
2017-07-16T04:56:40.932Z,79.93
2017-07-16T04:57:21.406Z,80.51
2017-07-16T04:58:01.843Z,80.22
2017-07-16T04:58:42.307Z,80.32
2017-07-16T05:00:29.858Z,79.3
2017-07-16T05:01:10.272Z,79.21
2017-07-16T05:01:50.749Z,78.92
2017-07-16T05:02:31.236Z,79.59
2017-07-16T05:03:11.717Z,79.21
2017-07-16T05:03:52.217Z,78.63
2017-07-16T05:04:32.682Z,78.44
2017-07-16T05:05:13.152Z,78.72
2017-07-16T05:05:53.603Z,78.34
2017-07-16T05:06:34.092Z,78.44
2017-07-16T05:07:14.594Z,78.44
2017-07-16T05:07:55.087Z,78.44
2017-07-16T05:08:35.521Z,78.05
2017-07-16T05:09:15.998Z,77.48
2017-07-16T05:09:56.428Z,78.57
2017-07-16T05:10:36.890Z,77.8
2017-07-16T05:11:17.364Z,78.44
2017-07-16T05:11:57.840Z,77.76
2017-07-16T05:12:38.273Z,77.71
2017-07-16T05:14:56.131Z,78.25
2017-07-16T05:15:36.559Z,78.67
2017-07-16T05:16:16.993Z,78.44
2017-07-16T05:16:57.425Z,77.48
2017-07-16T05:17:37.905Z,78.34
2017-07-16T05:18:18.378Z,78.63
2017-07-16T05:18:58.824Z,78.47
2017-07-16T05:19:39.304Z,78.09
2017-07-16T05:20:19.796Z,78.57
2017-07-16T05:21:00.251Z,78.67
2017-07-16T05:21:40.666Z,78.67
2017-07-16T05:22:21.108Z,78.19
2017-07-16T05:23:01.598Z,78.38
2017-07-16T05:23:42.022Z,77.71
2017-07-16T05:25:29.529Z,78.38
2017-07-16T05:26:10.028Z,78
2017-07-16T05:26:50.466Z,78
2017-07-16T05:27:30.971Z,77.71
2017-07-16T05:28:11.397Z,77.33
2017-07-16T05:28:51.847Z,76.75
2017-07-16T05:30:49.476Z,75.79
2017-07-16T05:31:29.990Z,75.31
2017-07-16T05:32:10.384Z,75.79
2017-07-16T05:32:50.803Z,75.12
2017-07-16T05:33:31.321Z,75.25
2017-07-16T05:34:11.727Z,74.87
2017-07-16T05:36:04.293Z,73.85
2017-07-16T05:36:44.773Z,72.6
2017-07-16T05:37:25.245Z,72.16
2017-07-16T05:38:05.734Z,71.77
2017-07-16T05:38:46.199Z,71.19
2017-07-16T05:39:26.708Z,71
2017-07-16T05:40:07.177Z,70.27
2017-07-16T05:40:47.619Z,69.4
2017-07-16T05:41:28.094Z,69.12
2017-07-16T05:42:08.508Z,69.6
2017-07-16T05:42:48.975Z,69.5
2017-07-16T05:43:29.396Z,68.92
2017-07-16T05:44:09.841Z,69.5
2017-07-16T05:44:50.275Z,69.12
2017-07-16T05:45:30.762Z,68.57
2017-07-16T05:46:11.272Z,68.54
2017-07-16T05:46:51.705Z,68.57
2017-07-16T05:47:32.147Z,69.12
2017-07-16T05:48:12.579Z,69.5
2017-07-16T05:50:00.092Z,69.69
2017-07-16T05:50:40.535Z,69.5
2017-07-16T05:51:21.018Z,69.06
2017-07-16T05:52:01.536Z,67.61
2017-07-16T05:52:41.960Z,67.61
2017-07-16T05:53:22.452Z,67.8
2017-07-16T05:54:02.952Z,67.42
2017-07-16T05:56:15.728Z,66.58
2017-07-16T05:56:56.153Z,66.55
2017-07-16T05:57:36.644Z,65.24
2017-07-16T05:58:17.096Z,63.7
2017-07-16T05:58:57.519Z,63.6
2017-07-16T05:59:38.014Z,61.97
2017-07-16T06:01:35.648Z,61.49
2017-07-16T06:02:16.152Z,61.29
2017-07-16T06:02:56.601Z,62.06
2017-07-16T06:03:37.052Z,61.46
2017-07-16T06:04:17.504Z,61.68
2017-07-16T06:04:57.928Z,62.35
2017-07-16T06:05:38.367Z,62.16
2017-07-16T06:07:51.172Z,61.68
2017-07-16T06:08:31.637Z,61.58
2017-07-16T06:09:12.155Z,61.58
2017-07-16T06:09:52.635Z,61.39
2017-07-16T06:10:33.086Z,61.49
2017-07-16T06:11:13.559Z,62.06
2017-07-16T06:11:54.067Z,61.58
2017-07-16T06:12:34.561Z,61.68
2017-07-16T06:13:15.057Z,62.16
2017-07-16T06:13:55.525Z,62.06
2017-07-16T06:14:36.087Z,61.68
2017-07-16T06:15:16.523Z,62.16
2017-07-16T06:15:57.006Z,61.97
2017-07-16T06:16:37.507Z,62.57
2017-07-16T06:17:17.969Z,63.02
2017-07-16T06:17:58.417Z,62.87
2017-07-16T06:18:38.865Z,62.96
2017-07-16T06:19:19.311Z,62.87
2017-07-16T06:19:59.742Z,62.19
2017-07-16T06:20:40.232Z,61.8
2017-07-16T06:21:20.650Z,61.61
2017-07-16T06:22:01.110Z,61.58
2017-07-16T06:22:41.570Z,61.68
2017-07-16T06:23:22.079Z,61.52
2017-07-16T06:24:02.545Z,61.68
2017-07-16T06:24:42.991Z,61.52
2017-07-16T06:25:23.478Z,61.71
2017-07-16T06:26:03.918Z,61.22
2017-07-16T06:26:44.382Z,61.13
2017-07-16T06:27:24.870Z,60.65
2017-07-16T06:28:05.329Z,60.94
2017-07-16T06:28:45.749Z,60.94
2017-07-16T06:29:26.184Z,60.94
2017-07-16T06:30:06.675Z,60.97
2017-07-16T06:30:47.168Z,60.39
2017-07-16T06:31:27.667Z,60.49
2017-07-16T06:32:08.098Z,60.3
2017-07-16T06:32:48.607Z,60.36
2017-07-16T06:33:29.072Z,60.27
2017-07-16T06:34:09.537Z,60.55
2017-07-16T06:34:49.994Z,60.65
2017-07-16T06:37:02.816Z,61.42
2017-07-16T06:37:43.235Z,61.71
2017-07-16T06:38:23.658Z,61.9
2017-07-16T06:39:04.108Z,61.61
2017-07-16T06:40:51.611Z,60.94
2017-07-16T06:41:32.084Z,61.04
2017-07-16T06:42:12.562Z,60.3
2017-07-16T06:42:53.027Z,60.97
2017-07-16T06:43:33.455Z,60.39
2017-07-16T06:44:13.945Z,59.81
2017-07-16T06:44:54.421Z,59.36
2017-07-16T06:45:34.871Z,58.88
2017-07-16T06:46:15.325Z,58.4
2017-07-16T06:46:55.798Z,58.14
2017-07-16T06:47:36.237Z,57.75
2017-07-16T06:48:16.690Z,56.81
2017-07-16T06:50:29.431Z,56.52
2017-07-16T06:51:09.902Z,56.79
2017-07-16T06:51:50.411Z,57.46
2017-07-16T06:52:30.980Z,57.39
2017-07-16T06:53:11.370Z,56.81
2017-07-16T06:53:51.842Z,56.33
2017-07-16T06:54:32.330Z,55.98
2017-07-16T06:55:12.830Z,55.76
2017-07-16T06:55:53.324Z,56.33
2017-07-16T06:56:33.800Z,55.78
2017-07-16T06:57:14.221Z,55.3
2017-07-16T06:57:54.690Z,56.14
2017-07-16T06:58:35.143Z,56.36
2017-07-16T06:59:15.583Z,56.07
2017-07-16T06:59:56.036Z,56.07
2017-07-16T07:00:36.492Z,55.59
2017-07-16T07:01:16.961Z,56.07
2017-07-16T07:01:57.393Z,55.88
2017-07-16T07:02:37.869Z,56.14
2017-07-16T07:03:18.286Z,55.88
2017-07-16T07:03:58.768Z,56.04
2017-07-16T07:04:39.221Z,56.04
2017-07-16T07:05:19.645Z,56.04
2017-07-16T07:06:00.072Z,55.98
2017-07-16T07:06:40.550Z,56.33
2017-07-16T07:07:21.017Z,56.46
2017-07-16T07:08:01.479Z,56.16
2017-07-16T07:08:42.077Z,55.88
2017-07-16T07:09:22.551Z,56.16
2017-07-16T07:10:02.973Z,55.88
2017-07-16T07:10:43.450Z,56.04
2017-07-16T07:11:23.883Z,56.52
2017-07-16T07:12:04.337Z,56.46
2017-07-16T07:12:44.822Z,55.68
2017-07-16T07:14:32.388Z,55.78
2017-07-16T07:15:12.795Z,56.65
2017-07-16T07:15:53.249Z,56.33
2017-07-16T07:16:33.710Z,57.2
2017-07-16T07:17:14.184Z,57.49
2017-07-16T07:17:54.612Z,57.59
2017-07-16T07:19:42.110Z,57.59
2017-07-16T07:20:22.581Z,57.1
2017-07-16T07:21:03.063Z,57.29
2017-07-16T07:21:43.531Z,57.42
2017-07-16T07:22:24.012Z,56.74
2017-07-16T07:23:04.487Z,56.65
2017-07-16T07:23:44.986Z,56.36
2017-07-16T07:24:25.410Z,56.46
2017-07-16T07:25:05.859Z,56.36
2017-07-16T07:26:58.781Z,57.23
2017-07-16T07:27:39.276Z,56.26
2017-07-16T07:28:19.722Z,56.84
2017-07-16T07:29:00.250Z,56.36
2017-07-16T07:29:40.731Z,56.26
2017-07-16T07:30:21.216Z,56.07
2017-07-16T07:31:01.694Z,56.36
2017-07-16T07:31:42.193Z,56.16
2017-07-16T07:32:22.677Z,56.16
2017-07-16T07:33:03.212Z,56.2
2017-07-16T07:33:43.658Z,55.42
2017-07-16T07:34:24.153Z,55.42
2017-07-16T07:35:04.638Z,54.58
2017-07-16T07:35:45.143Z,54.68
2017-07-16T07:36:25.570Z,54.87
2017-07-16T07:37:06.055Z,53.93
2017-07-16T07:37:46.473Z,53.38
2017-07-16T07:39:59.276Z,52.67
2017-07-16T07:40:39.737Z,53.23
2017-07-16T07:41:20.158Z,53.52
2017-07-16T07:42:00.624Z,53.61
2017-07-16T07:42:41.073Z,53.45
2017-07-16T07:43:21.528Z,52.02
2017-07-16T07:44:02.004Z,52.39
2017-07-16T07:45:59.824Z,52.12
2017-07-16T07:46:40.241Z,51.44
2017-07-16T07:48:32.904Z,52.12
2017-07-16T07:49:13.297Z,51.61
2017-07-16T07:49:53.753Z,52.22
2017-07-16T07:50:34.220Z,52.02
2017-07-16T07:51:14.680Z,51.06
2017-07-16T07:53:07.249Z,50.89
2017-07-16T07:53:47.761Z,50.98
2017-07-16T07:54:28.176Z,50.86
2017-07-16T07:55:08.676Z,50.96
2017-07-16T07:55:49.123Z,51.35
2017-07-16T07:56:29.635Z,49.99
2017-07-16T07:58:22.223Z,49.6
2017-07-16T07:59:02.706Z,49.7
2017-07-16T07:59:43.136Z,49.58
2017-07-16T08:00:23.579Z,50.35
2017-07-16T08:02:41.507Z,50.09
2017-07-16T08:03:21.919Z,50.09
2017-07-16T08:04:02.413Z,50.38
2017-07-16T08:04:42.833Z,50.02
2017-07-16T08:05:23.342Z,50.67
2017-07-16T08:06:03.801Z,50.84
2017-07-16T08:06:44.240Z,52.17
2017-07-16T08:09:02.097Z,51.42
2017-07-16T08:09:42.553Z,50.65
2017-07-16T08:10:23.044Z,50.38
2017-07-16T08:11:03.530Z,50.09
2017-07-16T08:11:44.033Z,50.4
2017-07-16T08:12:24.500Z,49.9
2017-07-16T08:13:04.969Z,49.82
2017-07-16T08:13:45.416Z,49.54
2017-07-16T08:14:25.900Z,47.6
2017-07-16T08:15:06.395Z,47.69
2017-07-16T08:15:46.845Z,47.99
2017-07-16T08:17:59.575Z,47.69
2017-07-16T08:18:40.041Z,47.33
2017-07-16T08:19:20.533Z,48.27
2017-07-16T08:20:01.010Z,48.49
2017-07-16T08:20:41.493Z,48.22
2017-07-16T08:21:21.895Z,47.64
2017-07-16T08:22:02.332Z,47.81
2017-07-16T08:22:42.786Z,47.72
2017-07-16T08:23:23.268Z,47.84
2017-07-16T08:25:41.093Z,47.26
2017-07-16T08:26:21.559Z,46.12
2017-07-16T08:27:02.020Z,46.04
2017-07-16T08:27:42.469Z,45.37
2017-07-16T08:28:22.961Z,45.44
2017-07-16T08:29:03.450Z,46.29
2017-07-16T08:29:43.881Z,47.14
2017-07-16T08:30:24.336Z,47.14
2017-07-16T08:31:04.836Z,47.52
2017-07-16T08:31:45.265Z,47.43
2017-07-16T08:32:25.700Z,47.24
2017-07-16T08:33:06.129Z,46.87
2017-07-16T08:33:46.628Z,46.87
2017-07-16T08:34:27.130Z,46.58
2017-07-16T08:35:07.566Z,46.58
2017-07-16T08:37:20.326Z,47.04
2017-07-16T08:38:00.835Z,46.94
2017-07-16T08:38:41.291Z,46.29
2017-07-16T08:39:21.764Z,46.39
2017-07-16T08:40:02.220Z,46.17
2017-07-16T08:40:42.685Z,46.09
2017-07-16T08:41:23.135Z,45.73
2017-07-16T08:42:03.590Z,44.3
2017-07-16T08:42:44.071Z,43.74
2017-07-16T08:43:24.537Z,43.86
2017-07-16T08:44:05.016Z,43.37
2017-07-16T08:44:45.465Z,42.99
2017-07-16T08:45:25.961Z,42.71
2017-07-16T08:46:06.478Z,42.52
2017-07-16T08:46:46.932Z,42.71
2017-07-16T08:47:27.393Z,41.96
2017-07-16T08:48:07.887Z,40.99
2017-07-16T08:50:25.657Z,39.75
2017-07-16T08:51:06.174Z,38.96
2017-07-16T08:51:46.702Z,39.82
2017-07-16T08:52:27.158Z,40.58
2017-07-16T08:53:07.619Z,40.21
2017-07-16T08:53:48.118Z,40.29
2017-07-16T08:54:28.563Z,40.31
2017-07-16T08:55:09.033Z,39.92
2017-07-16T08:55:49.510Z,39.62
2017-07-16T08:56:30.008Z,38.87
2017-07-16T08:57:10.530Z,38.77
2017-07-16T08:57:51.062Z,38.21
2017-07-16T08:58:31.465Z,38.11
2017-07-16T08:59:11.965Z,38.11
2017-07-16T08:59:52.428Z,37.76
2017-07-16T09:00:32.849Z,36.43
2017-07-16T09:02:45.615Z,35.06
2017-07-16T09:03:26.005Z,35.44
2017-07-16T09:04:06.470Z,35.06
2017-07-16T09:04:46.896Z,34.78
2017-07-16T09:07:04.720Z,35.44
2017-07-16T09:07:45.197Z,35.26
2017-07-16T09:08:25.697Z,35.16
2017-07-16T09:09:06.132Z,35.25
2017-07-16T09:09:46.560Z,36.38
2017-07-16T09:10:27.009Z,36.85
2017-07-16T09:11:07.468Z,37.7
2017-07-16T09:11:47.939Z,37.6
2017-07-16T09:13:35.694Z,37.52
2017-07-16T09:14:15.932Z,37.18
2017-07-16T09:14:56.438Z,36.88
2017-07-16T09:15:36.874Z,36.61
2017-07-16T09:16:17.356Z,36.3
2017-07-16T09:18:15.001Z,36.65
2017-07-16T09:18:55.380Z,38.01
2017-07-16T09:19:35.850Z,37.16
2017-07-16T09:20:16.315Z,37.62
2017-07-16T09:20:56.790Z,37.34
2017-07-16T09:21:37.226Z,37.06
2017-07-16T09:22:17.709Z,37.02
2017-07-16T09:22:58.201Z,37.51
2017-07-16T09:23:38.705Z,37.39
2017-07-16T09:24:19.177Z,37.78
2017-07-16T09:26:31.933Z,40.64
2017-07-16T09:27:12.410Z,40.48
2017-07-16T09:27:52.892Z,40.01
2017-07-16T09:28:33.390Z,39.24
2017-07-16T09:29:13.838Z,39.72
2017-07-16T09:29:54.318Z,38.39
2017-07-16T09:30:34.779Z,37.52
2017-07-16T09:31:15.286Z,37.92
2017-07-16T09:31:55.757Z,37.06
2017-07-16T09:32:36.255Z,36.96
2017-07-16T09:33:16.704Z,36.59
2017-07-16T09:33:57.187Z,36.65
2017-07-16T09:34:37.647Z,36.87
2017-07-16T09:35:18.098Z,36.96
2017-07-16T09:35:58.593Z,36.77
2017-07-16T09:36:39.034Z,36.49
2017-07-16T09:37:19.517Z,36.88
2017-07-16T09:37:59.961Z,36.79
2017-07-16T09:38:40.461Z,35.63
2017-07-16T09:39:20.874Z,35.93
2017-07-16T09:40:01.319Z,35.73
2017-07-16T09:40:41.751Z,35.89
2017-07-16T09:41:22.210Z,36.38
2017-07-16T09:42:02.698Z,36.69
2017-07-16T09:42:43.164Z,36.1
2017-07-16T09:43:23.651Z,35.61
2017-07-16T09:44:04.138Z,35.61
2017-07-16T09:44:44.632Z,35.81
2017-07-16T09:45:25.153Z,35.73
2017-07-16T09:46:05.629Z,36.18
2017-07-16T09:46:46.032Z,36.3
2017-07-16T09:47:26.520Z,35.93
2017-07-16T09:48:06.985Z,35.05
2017-07-16T09:48:47.431Z,34.76
2017-07-16T09:49:27.888Z,34.27
2017-07-16T09:50:08.308Z,33.43
2017-07-16T09:50:48.756Z,33.43
2017-07-16T09:51:29.226Z,33.53
2017-07-16T09:52:09.682Z,33.23
2017-07-16T09:52:50.134Z,32.78
2017-07-16T09:53:30.574Z,31.92
2017-07-16T09:55:23.140Z,30.68
2017-07-16T09:56:03.631Z,29.55
2017-07-16T09:56:44.122Z,28.55
2017-07-16T09:57:24.595Z,27.62
2017-07-16T09:58:05.103Z,27.04
2017-07-16T09:58:45.595Z,26.07
2017-07-16T09:59:26.060Z,26.07
2017-07-16T10:00:06.489Z,26.46
2017-07-16T10:00:46.957Z,26.17
2017-07-16T10:01:27.405Z,26.75